sensor_id;sensor_type;location;lat;lon;timestamp;temperature;humidity
47114;DHT22;32867;51.556;6.832;2023-06-26T00:00:55;25.60;77.00
47114;DHT22;32867;51.556;6.832;2023-06-26T00:05:56;25.50;77.40
47114;DHT22;32867;51.556;6.832;2023-06-26T00:11:01;25.40;77.60
47114;DHT22;32867;51.556;6.832;2023-06-26T00:16:01;25.30;78.10
47114;DHT22;32867;51.556;6.832;2023-06-26T00:21:03;25.30;78.30
47114;DHT22;32867;51.556;6.832;2023-06-26T00:26:04;25.10;78.30
47114;DHT22;32867;51.556;6.832;2023-06-26T00:31:05;25.10;78.70
47114;DHT22;32867;51.556;6.832;2023-06-26T00:36:07;25.00;78.60
47114;DHT22;32867;51.556;6.832;2023-06-26T00:41:08;25.00;78.80
47114;DHT22;32867;51.556;6.832;2023-06-26T00:46:14;24.90;79.10
47114;DHT22;32867;51.556;6.832;2023-06-26T00:51:15;24.90;79.30
47114;DHT22;32867;51.556;6.832;2023-06-26T00:56:18;24.80;79.80
47114;DHT22;32867;51.556;6.832;2023-06-26T01:01:21;24.70;80.50
47114;DHT22;32867;51.556;6.832;2023-06-26T01:06:28;24.60;80.60
47114;DHT22;32867;51.556;6.832;2023-06-26T01:11:31;24.50;81.50
47114;DHT22;32867;51.556;6.832;2023-06-26T01:16:33;24.30;81.90
47114;DHT22;32867;51.556;6.832;2023-06-26T01:21:35;24.40;81.80
47114;DHT22;32867;51.556;6.832;2023-06-26T01:26:40;24.40;82.10
47114;DHT22;32867;51.556;6.832;2023-06-26T01:31:42;24.30;82.80
47114;DHT22;32867;51.556;6.832;2023-06-26T01:36:44;24.20;83.10
47114;DHT22;32867;51.556;6.832;2023-06-26T01:41:46;24.10;83.80
47114;DHT22;32867;51.556;6.832;2023-06-26T01:47:04;24.00;83.90
47114;DHT22;32867;51.556;6.832;2023-06-26T01:52:25;24.00;84.20
47114;DHT22;32867;51.556;6.832;2023-06-26T01:57:27;23.90;84.80
47114;DHT22;32867;51.556;6.832;2023-06-26T02:02:30;23.90;84.50
47114;DHT22;32867;51.556;6.832;2023-06-26T02:07:31;23.80;84.80
47114;DHT22;32867;51.556;6.832;2023-06-26T02:12:31;23.80;84.90
47114;DHT22;32867;51.556;6.832;2023-06-26T02:17:32;23.80;85.20
47114;DHT22;32867;51.556;6.832;2023-06-26T02:22:33;23.50;86.40
47114;DHT22;32867;51.556;6.832;2023-06-26T02:27:34;23.50;86.50
47114;DHT22;32867;51.556;6.832;2023-06-26T02:32:37;23.50;86.00
47114;DHT22;32867;51.556;6.832;2023-06-26T02:37:39;23.40;86.50
47114;DHT22;32867;51.556;6.832;2023-06-26T02:42:42;23.30;87.00
47114;DHT22;32867;51.556;6.832;2023-06-26T02:47:44;23.30;86.80
47114;DHT22;32867;51.556;6.832;2023-06-26T02:52:46;23.20;86.80
47114;DHT22;32867;51.556;6.832;2023-06-26T02:57:52;23.20;86.90
47114;DHT22;32867;51.556;6.832;2023-06-26T03:02:52;23.10;87.00
47114;DHT22;32867;51.556;6.832;2023-06-26T03:07:55;23.00;88.70
47114;DHT22;32867;51.556;6.832;2023-06-26T03:12:56;22.70;90.40
47114;DHT22;32867;51.556;6.832;2023-06-26T03:17:59;22.50;91.40
47114;DHT22;32867;51.556;6.832;2023-06-26T03:23:03;22.70;92.00
47114;DHT22;32867;51.556;6.832;2023-06-26T03:28:04;22.50;94.10
47114;DHT22;32867;51.556;6.832;2023-06-26T03:33:07;22.40;95.90
47114;DHT22;32867;51.556;6.832;2023-06-26T03:38:09;22.20;98.10
47114;DHT22;32867;51.556;6.832;2023-06-26T03:43:10;22.10;99.40
47114;DHT22;32867;51.556;6.832;2023-06-26T03:48:21;21.90;99.90
47114;DHT22;32867;51.556;6.832;2023-06-26T03:53:23;21.70;99.90
47114;DHT22;32867;51.556;6.832;2023-06-26T03:58:25;21.60;99.90
47114;DHT22;32867;51.556;6.832;2023-06-26T04:03:26;21.30;99.90
47114;DHT22;32867;51.556;6.832;2023-06-26T04:08:28;21.30;99.90
47114;DHT22;32867;51.556;6.832;2023-06-26T04:13:30;21.20;99.90
47114;DHT22;32867;51.556;6.832;2023-06-26T04:18:32;21.30;99.90
47114;DHT22;32867;51.556;6.832;2023-06-26T04:23:33;21.20;99.90
47114;DHT22;32867;51.556;6.832;2023-06-26T04:28:34;21.20;99.90
47114;DHT22;32867;51.556;6.832;2023-06-26T04:33:36;21.10;99.90
47114;DHT22;32867;51.556;6.832;2023-06-26T04:38:37;21.10;99.90
47114;DHT22;32867;51.556;6.832;2023-06-26T04:43:38;21.00;99.90
47114;DHT22;32867;51.556;6.832;2023-06-26T04:48:40;21.20;99.90
47114;DHT22;32867;51.556;6.832;2023-06-26T04:53:42;21.10;99.90
47114;DHT22;32867;51.556;6.832;2023-06-26T04:58:44;21.20;99.90
47114;DHT22;32867;51.556;6.832;2023-06-26T05:03:44;21.30;99.90
47114;DHT22;32867;51.556;6.832;2023-06-26T05:08:45;21.30;99.90
47114;DHT22;32867;51.556;6.832;2023-06-26T05:13:46;21.20;99.90
47114;DHT22;32867;51.556;6.832;2023-06-26T05:18:46;21.30;99.90
47114;DHT22;32867;51.556;6.832;2023-06-26T05:23:48;21.00;99.90
47114;DHT22;32867;51.556;6.832;2023-06-26T05:28:51;21.20;99.90
47114;DHT22;32867;51.556;6.832;2023-06-26T05:33:53;21.00;99.90
47114;DHT22;32867;51.556;6.832;2023-06-26T05:38:56;20.90;99.90
47114;DHT22;32867;51.556;6.832;2023-06-26T05:43:56;20.90;99.90
47114;DHT22;32867;51.556;6.832;2023-06-26T05:48:57;20.90;99.90
47114;DHT22;32867;51.556;6.832;2023-06-26T05:53:58;21.10;99.90
47114;DHT22;32867;51.556;6.832;2023-06-26T05:58:59;21.10;99.90
47114;DHT22;32867;51.556;6.832;2023-06-26T06:04:03;20.90;99.90
47114;DHT22;32867;51.556;6.832;2023-06-26T06:09:03;20.90;99.90
47114;DHT22;32867;51.556;6.832;2023-06-26T06:14:04;20.90;99.90
47114;DHT22;32867;51.556;6.832;2023-06-26T06:19:06;20.60;99.90
47114;DHT22;32867;51.556;6.832;2023-06-26T06:24:08;20.80;99.90
47114;DHT22;32867;51.556;6.832;2023-06-26T06:29:10;20.30;99.90
47114;DHT22;32867;51.556;6.832;2023-06-26T06:34:10;20.70;99.90
47114;DHT22;32867;51.556;6.832;2023-06-26T06:39:13;20.80;99.90
47114;DHT22;32867;51.556;6.832;2023-06-26T06:44:14;21.00;99.90
47114;DHT22;32867;51.556;6.832;2023-06-26T06:49:15;21.20;99.90
47114;DHT22;32867;51.556;6.832;2023-06-26T06:54:16;21.20;99.90
47114;DHT22;32867;51.556;6.832;2023-06-26T06:59:17;20.80;99.90
47114;DHT22;32867;51.556;6.832;2023-06-26T07:04:18;21.10;99.90
47114;DHT22;32867;51.556;6.832;2023-06-26T07:09:19;21.30;99.90
47114;DHT22;32867;51.556;6.832;2023-06-26T07:14:19;21.10;99.90
47114;DHT22;32867;51.556;6.832;2023-06-26T07:19:20;21.20;99.90
47114;DHT22;32867;51.556;6.832;2023-06-26T07:24:20;21.30;99.90
47114;DHT22;32867;51.556;6.832;2023-06-26T07:29:21;21.40;99.90
47114;DHT22;32867;51.556;6.832;2023-06-26T07:34:22;21.30;99.90
47114;DHT22;32867;51.556;6.832;2023-06-26T07:39:23;21.20;99.90
47114;DHT22;32867;51.556;6.832;2023-06-26T07:44:23;21.60;99.90
47114;DHT22;32867;51.556;6.832;2023-06-26T07:49:24;21.80;99.90
47114;DHT22;32867;51.556;6.832;2023-06-26T07:54:25;21.80;99.90
47114;DHT22;32867;51.556;6.832;2023-06-26T07:59:27;22.00;99.90
47114;DHT22;32867;51.556;6.832;2023-06-26T08:04:29;22.80;99.90
47114;DHT22;32867;51.556;6.832;2023-06-26T08:09:32;22.40;99.90
47114;DHT22;32867;51.556;6.832;2023-06-26T08:14:34;22.40;99.90
47114;DHT22;32867;51.556;6.832;2023-06-26T08:19:34;22.20;99.90
47114;DHT22;32867;51.556;6.832;2023-06-26T08:24:35;21.80;99.90
47114;DHT22;32867;51.556;6.832;2023-06-26T08:29:37;22.00;99.90
47114;DHT22;32867;51.556;6.832;2023-06-26T08:34:37;21.80;99.90
47114;DHT22;32867;51.556;6.832;2023-06-26T08:39:38;22.00;99.90
47114;DHT22;32867;51.556;6.832;2023-06-26T08:44:39;22.30;99.90
47114;DHT22;32867;51.556;6.832;2023-06-26T08:49:44;22.50;99.90
47114;DHT22;32867;51.556;6.832;2023-06-26T08:54:54;22.50;99.90
47114;DHT22;32867;51.556;6.832;2023-06-26T08:59:56;22.20;99.90
47114;DHT22;32867;51.556;6.832;2023-06-26T09:04:57;22.30;99.90
47114;DHT22;32867;51.556;6.832;2023-06-26T09:09:58;22.10;99.90
47114;DHT22;32867;51.556;6.832;2023-06-26T09:14:59;22.30;99.90
47114;DHT22;32867;51.556;6.832;2023-06-26T09:20:04;22.40;99.90
47114;DHT22;32867;51.556;6.832;2023-06-26T09:25:05;22.50;99.90
47114;DHT22;32867;51.556;6.832;2023-06-26T09:30:07;22.90;99.90
47114;DHT22;32867;51.556;6.832;2023-06-26T09:35:07;22.90;99.90
47114;DHT22;32867;51.556;6.832;2023-06-26T09:40:08;22.90;99.90
47114;DHT22;32867;51.556;6.832;2023-06-26T09:45:18;22.70;99.90
47114;DHT22;32867;51.556;6.832;2023-06-26T09:50:22;23.10;99.00
47114;DHT22;32867;51.556;6.832;2023-06-26T09:55:24;23.40;94.90
47114;DHT22;32867;51.556;6.832;2023-06-26T10:00:26;23.90;94.10
47114;DHT22;32867;51.556;6.832;2023-06-26T10:05:27;23.10;94.00
47114;DHT22;32867;51.556;6.832;2023-06-26T10:10:28;23.70;94.90
47114;DHT22;32867;51.556;6.832;2023-06-26T10:15:30;24.00;92.00
47114;DHT22;32867;51.556;6.832;2023-06-26T10:20:34;24.00;91.60
47114;DHT22;32867;51.556;6.832;2023-06-26T10:25:37;23.80;90.30
47114;DHT22;32867;51.556;6.832;2023-06-26T10:30:40;23.70;91.60
47114;DHT22;32867;51.556;6.832;2023-06-26T10:35:45;22.90;93.80
47114;DHT22;32867;51.556;6.832;2023-06-26T10:40:47;22.60;95.90
47114;DHT22;32867;51.556;6.832;2023-06-26T10:45:49;22.30;94.80
47114;DHT22;32867;51.556;6.832;2023-06-26T10:50:54;23.20;93.60
47114;DHT22;32867;51.556;6.832;2023-06-26T10:55:58;24.60;90.70
47114;DHT22;32867;51.556;6.832;2023-06-26T11:06:14;23.80;84.50
47114;DHT22;32867;51.556;6.832;2023-06-26T11:11:16;23.70;84.60
47114;DHT22;32867;51.556;6.832;2023-06-26T11:16:20;23.60;81.80
47114;DHT22;32867;51.556;6.832;2023-06-26T11:21:21;24.00;80.10
47114;DHT22;32867;51.556;6.832;2023-06-26T11:26:23;24.00;80.70
47114;DHT22;32867;51.556;6.832;2023-06-26T11:31:28;23.80;80.80
47114;DHT22;32867;51.556;6.832;2023-06-26T11:36:33;24.20;80.60
47114;DHT22;32867;51.556;6.832;2023-06-26T11:41:39;24.50;76.90
47114;DHT22;32867;51.556;6.832;2023-06-26T11:46:39;24.50;77.40
47114;DHT22;32867;51.556;6.832;2023-06-26T11:51:40;24.90;75.20
47114;DHT22;32867;51.556;6.832;2023-06-26T11:56:41;24.90;72.30
47114;DHT22;32867;51.556;6.832;2023-06-26T12:01:43;25.20;72.30
47114;DHT22;32867;51.556;6.832;2023-06-26T12:06:51;24.00;66.80
47114;DHT22;32867;51.556;6.832;2023-06-26T12:11:53;23.90;65.90
47114;DHT22;32867;51.556;6.832;2023-06-26T12:16:55;24.70;66.10
47114;DHT22;32867;51.556;6.832;2023-06-26T12:21:56;24.20;68.50
47114;DHT22;32867;51.556;6.832;2023-06-26T12:26:57;23.40;70.90
47114;DHT22;32867;51.556;6.832;2023-06-26T12:31:57;23.60;71.20
47114;DHT22;32867;51.556;6.832;2023-06-26T12:37:03;24.50;70.60
47114;DHT22;32867;51.556;6.832;2023-06-26T12:42:04;25.00;70.80
47114;DHT22;32867;51.556;6.832;2023-06-26T12:47:04;24.90;69.20
47114;DHT22;32867;51.556;6.832;2023-06-26T12:52:09;24.20;68.30
47114;DHT22;32867;51.556;6.832;2023-06-26T12:57:10;24.00;66.60
47114;DHT22;32867;51.556;6.832;2023-06-26T13:02:11;24.20;67.00
47114;DHT22;32867;51.556;6.832;2023-06-26T13:07:12;24.10;65.50
47114;DHT22;32867;51.556;6.832;2023-06-26T13:12:13;24.10;65.00
47114;DHT22;32867;51.556;6.832;2023-06-26T13:17:14;24.70;64.20
47114;DHT22;32867;51.556;6.832;2023-06-26T13:22:14;24.60;63.20
47114;DHT22;32867;51.556;6.832;2023-06-26T13:27:15;24.40;62.30
47114;DHT22;32867;51.556;6.832;2023-06-26T13:32:16;24.50;63.80
47114;DHT22;32867;51.556;6.832;2023-06-26T13:37:17;24.70;62.20
47114;DHT22;32867;51.556;6.832;2023-06-26T13:42:18;25.10;62.10
47114;DHT22;32867;51.556;6.832;2023-06-26T13:47:19;24.30;64.30
47114;DHT22;32867;51.556;6.832;2023-06-26T13:52:21;23.50;62.60
47114;DHT22;32867;51.556;6.832;2023-06-26T13:57:21;24.80;63.00
47114;DHT22;32867;51.556;6.832;2023-06-26T14:02:22;24.60;64.60
47114;DHT22;32867;51.556;6.832;2023-06-26T14:07:24;24.90;63.50
47114;DHT22;32867;51.556;6.832;2023-06-26T14:12:25;25.40;63.60
47114;DHT22;32867;51.556;6.832;2023-06-26T14:17:26;25.40;63.70
47114;DHT22;32867;51.556;6.832;2023-06-26T14:22:27;25.60;62.70
47114;DHT22;32867;51.556;6.832;2023-06-26T14:27:29;25.40;62.70
47114;DHT22;32867;51.556;6.832;2023-06-26T14:32:30;24.80;63.50
47114;DHT22;32867;51.556;6.832;2023-06-26T14:37:30;23.90;64.30
47114;DHT22;32867;51.556;6.832;2023-06-26T14:42:32;24.00;65.40
47114;DHT22;32867;51.556;6.832;2023-06-26T14:47:34;24.00;67.70
47114;DHT22;32867;51.556;6.832;2023-06-26T14:52:35;24.30;68.00
47114;DHT22;32867;51.556;6.832;2023-06-26T14:57:36;23.90;69.70
47114;DHT22;32867;51.556;6.832;2023-06-26T15:02:37;24.20;70.00
47114;DHT22;32867;51.556;6.832;2023-06-26T15:07:38;24.00;69.60
47114;DHT22;32867;51.556;6.832;2023-06-26T15:12:38;23.80;69.50
47114;DHT22;32867;51.556;6.832;2023-06-26T15:17:39;23.80;68.60
47114;DHT22;32867;51.556;6.832;2023-06-26T15:22:41;24.30;67.30
47114;DHT22;32867;51.556;6.832;2023-06-26T15:27:42;24.30;66.00
47114;DHT22;32867;51.556;6.832;2023-06-26T15:32:43;24.30;65.40
47114;DHT22;32867;51.556;6.832;2023-06-26T15:37:43;24.90;64.30
47114;DHT22;32867;51.556;6.832;2023-06-26T15:42:51;23.70;65.60
47114;DHT22;32867;51.556;6.832;2023-06-26T15:47:54;23.30;66.90
47114;DHT22;32867;51.556;6.832;2023-06-26T15:52:54;23.30;66.80
47114;DHT22;32867;51.556;6.832;2023-06-26T15:57:55;23.10;66.50
47114;DHT22;32867;51.556;6.832;2023-06-26T16:02:56;22.90;67.60
47114;DHT22;32867;51.556;6.832;2023-06-26T16:07:57;22.80;68.30
47114;DHT22;32867;51.556;6.832;2023-06-26T16:12:58;22.90;68.40
47114;DHT22;32867;51.556;6.832;2023-06-26T16:17:59;22.90;68.00
47114;DHT22;32867;51.556;6.832;2023-06-26T16:23:00;22.70;68.60
47114;DHT22;32867;51.556;6.832;2023-06-26T16:28:01;22.60;68.40
47114;DHT22;32867;51.556;6.832;2023-06-26T16:33:01;22.60;68.40
47114;DHT22;32867;51.556;6.832;2023-06-26T16:38:03;22.10;69.30
47114;DHT22;32867;51.556;6.832;2023-06-26T16:43:06;22.00;69.10
47114;DHT22;32867;51.556;6.832;2023-06-26T16:48:07;21.90;68.50
47114;DHT22;32867;51.556;6.832;2023-06-26T16:53:07;22.60;68.50
47114;DHT22;32867;51.556;6.832;2023-06-26T16:58:08;22.60;67.70
47114;DHT22;32867;51.556;6.832;2023-06-26T17:03:09;22.80;69.10
47114;DHT22;32867;51.556;6.832;2023-06-26T17:08:10;22.40;69.70
47114;DHT22;32867;51.556;6.832;2023-06-26T17:13:11;22.60;70.90
47114;DHT22;32867;51.556;6.832;2023-06-26T17:18:12;22.30;70.40
47114;DHT22;32867;51.556;6.832;2023-06-26T17:23:12;23.30;68.90
47114;DHT22;32867;51.556;6.832;2023-06-26T17:28:13;24.10;67.30
47114;DHT22;32867;51.556;6.832;2023-06-26T17:33:15;23.80;67.70
47114;DHT22;32867;51.556;6.832;2023-06-26T17:38:15;23.60;68.70
47114;DHT22;32867;51.556;6.832;2023-06-26T17:43:16;23.30;68.10
47114;DHT22;32867;51.556;6.832;2023-06-26T17:48:17;23.10;68.60
47114;DHT22;32867;51.556;6.832;2023-06-26T17:53:17;23.40;65.50
47114;DHT22;32867;51.556;6.832;2023-06-26T17:58:18;25.10;64.20
47114;DHT22;32867;51.556;6.832;2023-06-26T18:03:19;24.70;64.00
47114;DHT22;32867;51.556;6.832;2023-06-26T18:08:20;23.90;65.50
47114;DHT22;32867;51.556;6.832;2023-06-26T18:13:22;23.20;65.90
47114;DHT22;32867;51.556;6.832;2023-06-26T18:18:25;23.80;65.50
47114;DHT22;32867;51.556;6.832;2023-06-26T18:23:26;23.10;65.20
47114;DHT22;32867;51.556;6.832;2023-06-26T18:28:28;23.10;66.00
47114;DHT22;32867;51.556;6.832;2023-06-26T18:33:30;23.20;66.00
47114;DHT22;32867;51.556;6.832;2023-06-26T18:38:30;23.40;67.30
47114;DHT22;32867;51.556;6.832;2023-06-26T18:43:31;23.40;67.10
47114;DHT22;32867;51.556;6.832;2023-06-26T18:48:32;22.80;67.60
47114;DHT22;32867;51.556;6.832;2023-06-26T18:53:34;22.60;69.50
47114;DHT22;32867;51.556;6.832;2023-06-26T18:58:35;23.50;68.80
47114;DHT22;32867;51.556;6.832;2023-06-26T19:03:38;23.30;68.00
47114;DHT22;32867;51.556;6.832;2023-06-26T19:08:38;24.20;68.40
47114;DHT22;32867;51.556;6.832;2023-06-26T19:13:39;23.50;68.10
47114;DHT22;32867;51.556;6.832;2023-06-26T19:18:40;23.30;68.00
47114;DHT22;32867;51.556;6.832;2023-06-26T19:23:40;22.40;68.40
47114;DHT22;32867;51.556;6.832;2023-06-26T19:28:41;21.60;70.30
47114;DHT22;32867;51.556;6.832;2023-06-26T19:33:42;21.20;71.40
47114;DHT22;32867;51.556;6.832;2023-06-26T19:38:43;21.00;71.70
47114;DHT22;32867;51.556;6.832;2023-06-26T19:43:43;20.70;72.90
47114;DHT22;32867;51.556;6.832;2023-06-26T19:48:44;20.50;73.60
47114;DHT22;32867;51.556;6.832;2023-06-26T19:53:46;20.20;74.60
47114;DHT22;32867;51.556;6.832;2023-06-26T19:58:47;20.10;75.30
47114;DHT22;32867;51.556;6.832;2023-06-26T20:03:47;20.00;76.10
47114;DHT22;32867;51.556;6.832;2023-06-26T20:08:48;20.00;76.60
47114;DHT22;32867;51.556;6.832;2023-06-26T20:13:49;20.30;76.00
47114;DHT22;32867;51.556;6.832;2023-06-26T20:18:50;20.30;76.10
47114;DHT22;32867;51.556;6.832;2023-06-26T20:23:51;20.20;76.40
47114;DHT22;32867;51.556;6.832;2023-06-26T20:28:52;19.90;77.10
47114;DHT22;32867;51.556;6.832;2023-06-26T20:33:54;19.90;77.70
47114;DHT22;32867;51.556;6.832;2023-06-26T20:38:55;19.80;78.10
47114;DHT22;32867;51.556;6.832;2023-06-26T20:43:57;19.50;79.00
47114;DHT22;32867;51.556;6.832;2023-06-26T20:48:58;19.50;79.50
47114;DHT22;32867;51.556;6.832;2023-06-26T20:53:59;19.60;79.40
47114;DHT22;32867;51.556;6.832;2023-06-26T20:59:00;19.50;80.00
47114;DHT22;32867;51.556;6.832;2023-06-26T21:04:01;19.50;80.50
47114;DHT22;32867;51.556;6.832;2023-06-26T21:09:01;19.50;80.40
47114;DHT22;32867;51.556;6.832;2023-06-26T21:14:03;19.70;80.60
47114;DHT22;32867;51.556;6.832;2023-06-26T21:19:04;19.90;80.30
47114;DHT22;32867;51.556;6.832;2023-06-26T21:24:05;20.00;79.80
47114;DHT22;32867;51.556;6.832;2023-06-26T21:29:05;19.60;80.90
47114;DHT22;32867;51.556;6.832;2023-06-26T21:34:06;19.40;82.10
47114;DHT22;32867;51.556;6.832;2023-06-26T21:39:07;19.20;82.80
47114;DHT22;32867;51.556;6.832;2023-06-26T21:44:08;19.30;82.70
47114;DHT22;32867;51.556;6.832;2023-06-26T21:49:09;19.60;82.40
47114;DHT22;32867;51.556;6.832;2023-06-26T21:54:09;19.70;82.10
47114;DHT22;32867;51.556;6.832;2023-06-26T21:59:10;19.70;82.40
47114;DHT22;32867;51.556;6.832;2023-06-26T22:04:10;19.70;82.60
47114;DHT22;32867;51.556;6.832;2023-06-26T22:09:11;19.60;83.10
47114;DHT22;32867;51.556;6.832;2023-06-26T22:14:14;19.50;83.60
47114;DHT22;32867;51.556;6.832;2023-06-26T22:19:15;19.40;84.20
47114;DHT22;32867;51.556;6.832;2023-06-26T22:24:16;19.30;85.00
47114;DHT22;32867;51.556;6.832;2023-06-26T22:29:17;19.20;85.20
47114;DHT22;32867;51.556;6.832;2023-06-26T22:34:17;19.10;85.80
47114;DHT22;32867;51.556;6.832;2023-06-26T22:39:18;19.10;86.40
47114;DHT22;32867;51.556;6.832;2023-06-26T22:44:19;19.00;87.00
47114;DHT22;32867;51.556;6.832;2023-06-26T22:49:20;18.90;87.70
47114;DHT22;32867;51.556;6.832;2023-06-26T22:54:21;18.90;88.10
47114;DHT22;32867;51.556;6.832;2023-06-26T22:59:21;18.70;88.70
47114;DHT22;32867;51.556;6.832;2023-06-26T23:04:23;18.70;89.20
47114;DHT22;32867;51.556;6.832;2023-06-26T23:09:23;18.70;89.60
47114;DHT22;32867;51.556;6.832;2023-06-26T23:14:24;18.60;90.00
47114;DHT22;32867;51.556;6.832;2023-06-26T23:19:25;18.50;90.30
47114;DHT22;32867;51.556;6.832;2023-06-26T23:24:27;18.50;90.70
47114;DHT22;32867;51.556;6.832;2023-06-26T23:29:32;18.40;91.10
47114;DHT22;32867;51.556;6.832;2023-06-26T23:34:34;18.30;91.40
47114;DHT22;32867;51.556;6.832;2023-06-26T23:39:40;18.30;91.70
47114;DHT22;32867;51.556;6.832;2023-06-26T23:44:44;18.30;92.00
47114;DHT22;32867;51.556;6.832;2023-06-26T23:49:49;18.20;92.20
47114;DHT22;32867;51.556;6.832;2023-06-26T23:54:50;18.10;92.70
47114;DHT22;32867;51.556;6.832;2023-06-26T23:59:53;18.00;93.20
